sensor_id;sensor_type;location;lat;lon;timestamp;temperature;humidity
21487;DHT22;10905;50.822;4.336;2023-07-31T00:00:10;18.10;99.90
21487;DHT22;10905;50.822;4.336;2023-07-31T00:02:36;18.20;99.90
21487;DHT22;10905;50.822;4.336;2023-07-31T00:05:02;18.20;99.90
21487;DHT22;10905;50.822;4.336;2023-07-31T00:07:28;18.30;99.90
21487;DHT22;10905;50.822;4.336;2023-07-31T00:09:53;18.30;99.90
21487;DHT22;10905;50.822;4.336;2023-07-31T00:12:20;18.20;99.90
21487;DHT22;10905;50.822;4.336;2023-07-31T00:14:45;18.30;99.90
21487;DHT22;10905;50.822;4.336;2023-07-31T00:17:12;18.30;99.90
21487;DHT22;10905;50.822;4.336;2023-07-31T00:19:37;18.30;99.90
21487;DHT22;10905;50.822;4.336;2023-07-31T00:22:03;18.30;99.90
21487;DHT22;10905;50.822;4.336;2023-07-31T00:24:29;18.30;99.90
21487;DHT22;10905;50.822;4.336;2023-07-31T00:26:54;18.20;99.90
21487;DHT22;10905;50.822;4.336;2023-07-31T00:29:20;18.30;99.90
21487;DHT22;10905;50.822;4.336;2023-07-31T00:31:45;18.10;99.90
21487;DHT22;10905;50.822;4.336;2023-07-31T00:34:11;18.20;99.90
21487;DHT22;10905;50.822;4.336;2023-07-31T00:36:37;18.20;99.90
21487;DHT22;10905;50.822;4.336;2023-07-31T00:39:04;18.20;99.90
21487;DHT22;10905;50.822;4.336;2023-07-31T00:41:30;18.20;99.90
21487;DHT22;10905;50.822;4.336;2023-07-31T00:43:55;18.40;99.90
21487;DHT22;10905;50.822;4.336;2023-07-31T00:46:21;18.30;99.90
21487;DHT22;10905;50.822;4.336;2023-07-31T00:48:47;18.30;99.90
21487;DHT22;10905;50.822;4.336;2023-07-31T00:51:12;18.30;99.90
21487;DHT22;10905;50.822;4.336;2023-07-31T00:53:39;18.30;99.90
21487;DHT22;10905;50.822;4.336;2023-07-31T00:56:05;18.30;99.90
21487;DHT22;10905;50.822;4.336;2023-07-31T00:58:31;18.30;99.90
21487;DHT22;10905;50.822;4.336;2023-07-31T01:00:57;18.30;99.90
21487;DHT22;10905;50.822;4.336;2023-07-31T01:03:23;18.30;99.90
21487;DHT22;10905;50.822;4.336;2023-07-31T01:08:49;18.40;99.90
21487;DHT22;10905;50.822;4.336;2023-07-31T01:11:29;18.30;99.90
21487;DHT22;10905;50.822;4.336;2023-07-31T01:13:55;18.40;99.90
21487;DHT22;10905;50.822;4.336;2023-07-31T01:16:21;18.30;99.90
21487;DHT22;10905;50.822;4.336;2023-07-31T01:18:47;18.30;99.90
21487;DHT22;10905;50.822;4.336;2023-07-31T01:21:47;18.20;99.90
21487;DHT22;10905;50.822;4.336;2023-07-31T01:27:33;18.20;99.90
21487;DHT22;10905;50.822;4.336;2023-07-31T01:30:08;18.30;99.90
21487;DHT22;10905;50.822;4.336;2023-07-31T01:32:40;18.20;99.90
21487;DHT22;10905;50.822;4.336;2023-07-31T01:35:07;18.30;99.90
21487;DHT22;10905;50.822;4.336;2023-07-31T01:37:34;18.20;99.90
21487;DHT22;10905;50.822;4.336;2023-07-31T01:40:00;18.30;99.90
21487;DHT22;10905;50.822;4.336;2023-07-31T01:42:25;18.30;99.90
21487;DHT22;10905;50.822;4.336;2023-07-31T01:44:51;18.30;99.90
21487;DHT22;10905;50.822;4.336;2023-07-31T01:47:16;18.30;99.90
21487;DHT22;10905;50.822;4.336;2023-07-31T01:49:42;18.20;99.90
21487;DHT22;10905;50.822;4.336;2023-07-31T01:52:08;18.30;99.90
21487;DHT22;10905;50.822;4.336;2023-07-31T01:54:33;18.30;99.90
21487;DHT22;10905;50.822;4.336;2023-07-31T01:56:59;18.30;99.90
21487;DHT22;10905;50.822;4.336;2023-07-31T01:59:25;18.40;99.90
21487;DHT22;10905;50.822;4.336;2023-07-31T02:01:50;18.40;99.90
21487;DHT22;10905;50.822;4.336;2023-07-31T02:04:16;18.50;99.90
21487;DHT22;10905;50.822;4.336;2023-07-31T02:06:42;18.40;99.90
21487;DHT22;10905;50.822;4.336;2023-07-31T02:09:08;18.40;99.90
21487;DHT22;10905;50.822;4.336;2023-07-31T02:11:34;18.40;99.90
21487;DHT22;10905;50.822;4.336;2023-07-31T02:13:59;18.40;99.90
21487;DHT22;10905;50.822;4.336;2023-07-31T02:16:25;18.40;99.90
21487;DHT22;10905;50.822;4.336;2023-07-31T02:18:50;18.40;99.90
21487;DHT22;10905;50.822;4.336;2023-07-31T02:21:16;18.40;99.90
21487;DHT22;10905;50.822;4.336;2023-07-31T02:23:42;18.40;99.90
21487;DHT22;10905;50.822;4.336;2023-07-31T02:26:07;18.40;99.90
21487;DHT22;10905;50.822;4.336;2023-07-31T02:28:33;18.50;99.90
21487;DHT22;10905;50.822;4.336;2023-07-31T02:30:59;18.40;99.90
21487;DHT22;10905;50.822;4.336;2023-07-31T02:33:24;18.40;99.90
21487;DHT22;10905;50.822;4.336;2023-07-31T02:35:50;18.40;99.90
21487;DHT22;10905;50.822;4.336;2023-07-31T02:38:15;18.40;99.90
21487;DHT22;10905;50.822;4.336;2023-07-31T02:40:41;18.40;99.90
21487;DHT22;10905;50.822;4.336;2023-07-31T02:43:07;18.40;99.90
21487;DHT22;10905;50.822;4.336;2023-07-31T02:45:33;18.40;99.90
21487;DHT22;10905;50.822;4.336;2023-07-31T02:47:59;18.50;99.90
21487;DHT22;10905;50.822;4.336;2023-07-31T02:50:24;18.40;99.90
21487;DHT22;10905;50.822;4.336;2023-07-31T02:52:50;18.40;99.90
21487;DHT22;10905;50.822;4.336;2023-07-31T02:55:16;18.40;99.90
21487;DHT22;10905;50.822;4.336;2023-07-31T02:57:41;18.40;99.90
21487;DHT22;10905;50.822;4.336;2023-07-31T03:00:07;18.40;99.90
21487;DHT22;10905;50.822;4.336;2023-07-31T03:02:33;18.30;99.90
21487;DHT22;10905;50.822;4.336;2023-07-31T03:04:58;18.40;99.90
21487;DHT22;10905;50.822;4.336;2023-07-31T03:07:24;18.40;99.90
21487;DHT22;10905;50.822;4.336;2023-07-31T03:09:50;18.50;99.90
21487;DHT22;10905;50.822;4.336;2023-07-31T03:12:15;18.60;99.90
21487;DHT22;10905;50.822;4.336;2023-07-31T03:14:41;18.50;99.90
21487;DHT22;10905;50.822;4.336;2023-07-31T03:17:07;18.50;99.90
21487;DHT22;10905;50.822;4.336;2023-07-31T03:19:33;18.40;99.90
21487;DHT22;10905;50.822;4.336;2023-07-31T03:21:59;18.40;99.90
21487;DHT22;10905;50.822;4.336;2023-07-31T03:24:25;18.40;99.90
21487;DHT22;10905;50.822;4.336;2023-07-31T03:26:51;18.20;99.90
21487;DHT22;10905;50.822;4.336;2023-07-31T03:29:17;18.20;99.90
21487;DHT22;10905;50.822;4.336;2023-07-31T03:31:42;18.20;99.90
21487;DHT22;10905;50.822;4.336;2023-07-31T03:34:08;18.10;99.90
21487;DHT22;10905;50.822;4.336;2023-07-31T03:36:33;18.10;99.90
21487;DHT22;10905;50.822;4.336;2023-07-31T03:38:59;18.00;99.90
21487;DHT22;10905;50.822;4.336;2023-07-31T03:41:25;17.90;99.90
21487;DHT22;10905;50.822;4.336;2023-07-31T03:43:51;18.00;99.90
21487;DHT22;10905;50.822;4.336;2023-07-31T03:46:24;18.00;99.90
21487;DHT22;10905;50.822;4.336;2023-07-31T03:48:50;18.00;99.90
21487;DHT22;10905;50.822;4.336;2023-07-31T03:51:16;17.90;99.90
21487;DHT22;10905;50.822;4.336;2023-07-31T03:53:43;18.00;99.90
21487;DHT22;10905;50.822;4.336;2023-07-31T03:56:08;18.00;99.90
21487;DHT22;10905;50.822;4.336;2023-07-31T03:58:34;17.90;99.90
21487;DHT22;10905;50.822;4.336;2023-07-31T04:01:01;17.80;99.90
21487;DHT22;10905;50.822;4.336;2023-07-31T04:03:26;17.90;99.90
21487;DHT22;10905;50.822;4.336;2023-07-31T04:05:54;17.80;99.90
21487;DHT22;10905;50.822;4.336;2023-07-31T04:08:21;17.70;99.90
21487;DHT22;10905;50.822;4.336;2023-07-31T04:10:46;17.60;99.90
21487;DHT22;10905;50.822;4.336;2023-07-31T04:13:12;17.60;99.90
21487;DHT22;10905;50.822;4.336;2023-07-31T04:15:38;17.70;99.90
21487;DHT22;10905;50.822;4.336;2023-07-31T04:18:06;17.70;99.90
21487;DHT22;10905;50.822;4.336;2023-07-31T04:20:31;17.70;99.90
21487;DHT22;10905;50.822;4.336;2023-07-31T04:22:57;17.70;99.90
21487;DHT22;10905;50.822;4.336;2023-07-31T04:25:23;17.70;99.90
21487;DHT22;10905;50.822;4.336;2023-07-31T04:27:48;17.80;99.90
21487;DHT22;10905;50.822;4.336;2023-07-31T04:30:14;17.70;99.90
21487;DHT22;10905;50.822;4.336;2023-07-31T04:32:39;17.70;99.90
21487;DHT22;10905;50.822;4.336;2023-07-31T04:35:05;17.70;99.90
21487;DHT22;10905;50.822;4.336;2023-07-31T04:37:31;17.70;99.90
21487;DHT22;10905;50.822;4.336;2023-07-31T04:39:57;17.80;99.90
21487;DHT22;10905;50.822;4.336;2023-07-31T04:42:22;17.70;99.90
21487;DHT22;10905;50.822;4.336;2023-07-31T04:44:48;17.70;99.90
21487;DHT22;10905;50.822;4.336;2023-07-31T04:47:14;17.70;99.90
21487;DHT22;10905;50.822;4.336;2023-07-31T04:49:39;17.70;99.90
21487;DHT22;10905;50.822;4.336;2023-07-31T04:52:05;17.60;99.90
21487;DHT22;10905;50.822;4.336;2023-07-31T04:54:31;17.70;99.90
21487;DHT22;10905;50.822;4.336;2023-07-31T04:56:56;17.70;99.90
21487;DHT22;10905;50.822;4.336;2023-07-31T04:59:22;17.70;99.90
21487;DHT22;10905;50.822;4.336;2023-07-31T05:01:47;17.70;99.90
21487;DHT22;10905;50.822;4.336;2023-07-31T05:04:13;17.70;99.90
21487;DHT22;10905;50.822;4.336;2023-07-31T05:06:40;17.60;99.90
21487;DHT22;10905;50.822;4.336;2023-07-31T05:09:06;17.60;99.90
21487;DHT22;10905;50.822;4.336;2023-07-31T05:11:31;17.60;99.90
21487;DHT22;10905;50.822;4.336;2023-07-31T05:13:57;17.60;99.90
21487;DHT22;10905;50.822;4.336;2023-07-31T05:16:22;17.50;99.90
21487;DHT22;10905;50.822;4.336;2023-07-31T05:18:48;17.50;99.90
21487;DHT22;10905;50.822;4.336;2023-07-31T05:21:14;17.50;99.90
21487;DHT22;10905;50.822;4.336;2023-07-31T05:23:39;17.40;99.90
21487;DHT22;10905;50.822;4.336;2023-07-31T05:26:06;17.40;99.90
21487;DHT22;10905;50.822;4.336;2023-07-31T05:28:34;17.40;99.90
21487;DHT22;10905;50.822;4.336;2023-07-31T05:31:03;17.40;99.90
21487;DHT22;10905;50.822;4.336;2023-07-31T05:33:29;17.50;99.90
21487;DHT22;10905;50.822;4.336;2023-07-31T05:35:55;17.40;99.90
21487;DHT22;10905;50.822;4.336;2023-07-31T05:38:20;17.40;99.90
21487;DHT22;10905;50.822;4.336;2023-07-31T05:40:47;17.30;99.90
21487;DHT22;10905;50.822;4.336;2023-07-31T05:43:13;17.30;99.90
21487;DHT22;10905;50.822;4.336;2023-07-31T05:45:38;17.30;99.90
21487;DHT22;10905;50.822;4.336;2023-07-31T05:48:05;17.20;99.90
21487;DHT22;10905;50.822;4.336;2023-07-31T05:50:31;17.30;99.90
21487;DHT22;10905;50.822;4.336;2023-07-31T05:52:57;17.30;99.90
21487;DHT22;10905;50.822;4.336;2023-07-31T05:55:23;17.30;99.90
21487;DHT22;10905;50.822;4.336;2023-07-31T05:57:49;17.30;99.90
21487;DHT22;10905;50.822;4.336;2023-07-31T06:00:15;17.40;99.90
21487;DHT22;10905;50.822;4.336;2023-07-31T06:02:41;17.30;99.90
21487;DHT22;10905;50.822;4.336;2023-07-31T06:05:07;17.30;99.90
21487;DHT22;10905;50.822;4.336;2023-07-31T06:07:33;17.30;99.90
21487;DHT22;10905;50.822;4.336;2023-07-31T06:09:58;17.40;99.90
21487;DHT22;10905;50.822;4.336;2023-07-31T06:12:30;17.40;99.90
21487;DHT22;10905;50.822;4.336;2023-07-31T06:14:56;17.40;99.90
21487;DHT22;10905;50.822;4.336;2023-07-31T06:17:22;17.50;99.90
21487;DHT22;10905;50.822;4.336;2023-07-31T06:19:47;17.40;99.90
21487;DHT22;10905;50.822;4.336;2023-07-31T06:22:13;17.40;99.90
21487;DHT22;10905;50.822;4.336;2023-07-31T06:24:38;17.40;99.90
21487;DHT22;10905;50.822;4.336;2023-07-31T06:27:04;17.50;99.90
21487;DHT22;10905;50.822;4.336;2023-07-31T06:29:31;17.50;99.90
21487;DHT22;10905;50.822;4.336;2023-07-31T06:31:57;17.60;99.90
21487;DHT22;10905;50.822;4.336;2023-07-31T06:34:22;17.60;99.90
21487;DHT22;10905;50.822;4.336;2023-07-31T06:36:48;17.70;99.90
21487;DHT22;10905;50.822;4.336;2023-07-31T06:39:13;17.70;99.90
21487;DHT22;10905;50.822;4.336;2023-07-31T06:41:39;17.70;99.90
21487;DHT22;10905;50.822;4.336;2023-07-31T06:44:05;17.70;99.90
21487;DHT22;10905;50.822;4.336;2023-07-31T06:46:30;17.90;99.90
21487;DHT22;10905;50.822;4.336;2023-07-31T06:48:56;17.90;99.90
21487;DHT22;10905;50.822;4.336;2023-07-31T06:51:21;17.90;99.90
21487;DHT22;10905;50.822;4.336;2023-07-31T06:53:47;17.90;99.90
21487;DHT22;10905;50.822;4.336;2023-07-31T06:56:13;18.10;99.90
21487;DHT22;10905;50.822;4.336;2023-07-31T06:58:39;18.10;99.90
21487;DHT22;10905;50.822;4.336;2023-07-31T07:01:04;18.20;99.90
21487;DHT22;10905;50.822;4.336;2023-07-31T07:03:30;18.30;99.90
21487;DHT22;10905;50.822;4.336;2023-07-31T07:05:56;18.30;99.90
21487;DHT22;10905;50.822;4.336;2023-07-31T07:08:21;18.40;99.90
21487;DHT22;10905;50.822;4.336;2023-07-31T07:10:47;18.50;99.90
21487;DHT22;10905;50.822;4.336;2023-07-31T07:13:13;18.50;99.90
21487;DHT22;10905;50.822;4.336;2023-07-31T07:15:39;18.50;99.90
21487;DHT22;10905;50.822;4.336;2023-07-31T07:18:05;18.50;99.90
21487;DHT22;10905;50.822;4.336;2023-07-31T07:20:30;18.60;99.90
21487;DHT22;10905;50.822;4.336;2023-07-31T07:22:56;18.70;99.90
21487;DHT22;10905;50.822;4.336;2023-07-31T07:25:21;18.70;99.90
21487;DHT22;10905;50.822;4.336;2023-07-31T07:27:47;18.70;99.90
21487;DHT22;10905;50.822;4.336;2023-07-31T07:30:13;18.60;99.90
21487;DHT22;10905;50.822;4.336;2023-07-31T07:32:39;18.60;99.90
21487;DHT22;10905;50.822;4.336;2023-07-31T07:35:06;18.70;99.90
21487;DHT22;10905;50.822;4.336;2023-07-31T07:37:32;18.70;99.90
21487;DHT22;10905;50.822;4.336;2023-07-31T07:39:57;18.60;99.90
21487;DHT22;10905;50.822;4.336;2023-07-31T07:42:23;18.60;99.90
21487;DHT22;10905;50.822;4.336;2023-07-31T07:44:49;18.70;99.90
21487;DHT22;10905;50.822;4.336;2023-07-31T07:47:14;18.80;99.90
21487;DHT22;10905;50.822;4.336;2023-07-31T07:49:40;18.90;99.90
21487;DHT22;10905;50.822;4.336;2023-07-31T07:52:06;18.80;99.90
21487;DHT22;10905;50.822;4.336;2023-07-31T07:54:32;18.80;99.90
21487;DHT22;10905;50.822;4.336;2023-07-31T07:56:58;18.80;99.90
21487;DHT22;10905;50.822;4.336;2023-07-31T07:59:23;18.90;99.90
21487;DHT22;10905;50.822;4.336;2023-07-31T08:01:49;18.80;99.90
21487;DHT22;10905;50.822;4.336;2023-07-31T08:04:14;18.80;99.90
21487;DHT22;10905;50.822;4.336;2023-07-31T08:06:40;18.80;99.90
21487;DHT22;10905;50.822;4.336;2023-07-31T08:09:06;18.80;99.90
21487;DHT22;10905;50.822;4.336;2023-07-31T08:11:35;18.80;99.90
21487;DHT22;10905;50.822;4.336;2023-07-31T08:14:00;18.90;99.90
21487;DHT22;10905;50.822;4.336;2023-07-31T08:16:26;19.00;99.90
21487;DHT22;10905;50.822;4.336;2023-07-31T08:18:52;19.00;99.90
21487;DHT22;10905;50.822;4.336;2023-07-31T08:21:17;18.90;99.90
21487;DHT22;10905;50.822;4.336;2023-07-31T08:23:43;18.80;99.90
21487;DHT22;10905;50.822;4.336;2023-07-31T08:26:17;18.80;99.90
21487;DHT22;10905;50.822;4.336;2023-07-31T08:28:43;18.70;99.90
21487;DHT22;10905;50.822;4.336;2023-07-31T08:31:09;18.60;99.90
21487;DHT22;10905;50.822;4.336;2023-07-31T08:33:34;18.60;99.90
21487;DHT22;10905;50.822;4.336;2023-07-31T08:36:00;18.60;99.90
21487;DHT22;10905;50.822;4.336;2023-07-31T08:38:26;18.70;99.90
21487;DHT22;10905;50.822;4.336;2023-07-31T08:40:52;18.80;99.90
21487;DHT22;10905;50.822;4.336;2023-07-31T08:43:20;18.80;99.90
21487;DHT22;10905;50.822;4.336;2023-07-31T08:45:49;18.80;99.90
21487;DHT22;10905;50.822;4.336;2023-07-31T08:48:15;18.80;99.90
21487;DHT22;10905;50.822;4.336;2023-07-31T08:50:42;18.80;99.90
21487;DHT22;10905;50.822;4.336;2023-07-31T08:53:08;18.90;99.90
21487;DHT22;10905;50.822;4.336;2023-07-31T08:55:35;19.00;99.90
21487;DHT22;10905;50.822;4.336;2023-07-31T08:58:04;18.90;99.90
21487;DHT22;10905;50.822;4.336;2023-07-31T09:00:33;19.00;99.90
21487;DHT22;10905;50.822;4.336;2023-07-31T09:03:16;18.90;99.90
21487;DHT22;10905;50.822;4.336;2023-07-31T09:05:44;19.00;99.90
21487;DHT22;10905;50.822;4.336;2023-07-31T09:08:11;19.10;99.90
21487;DHT22;10905;50.822;4.336;2023-07-31T09:10:42;19.10;99.90
21487;DHT22;10905;50.822;4.336;2023-07-31T09:13:08;19.10;99.90
21487;DHT22;10905;50.822;4.336;2023-07-31T09:15:35;19.00;99.90
21487;DHT22;10905;50.822;4.336;2023-07-31T09:18:02;19.00;99.90
21487;DHT22;10905;50.822;4.336;2023-07-31T09:20:28;19.00;99.90
21487;DHT22;10905;50.822;4.336;2023-07-31T09:22:55;19.00;99.90
21487;DHT22;10905;50.822;4.336;2023-07-31T09:25:25;19.00;99.90
21487;DHT22;10905;50.822;4.336;2023-07-31T09:28:02;19.10;99.90
21487;DHT22;10905;50.822;4.336;2023-07-31T09:30:28;19.30;99.90
21487;DHT22;10905;50.822;4.336;2023-07-31T09:33:02;19.30;99.90
21487;DHT22;10905;50.822;4.336;2023-07-31T09:35:31;19.20;99.90
21487;DHT22;10905;50.822;4.336;2023-07-31T09:37:59;19.00;99.90
21487;DHT22;10905;50.822;4.336;2023-07-31T09:40:42;18.90;99.90
21487;DHT22;10905;50.822;4.336;2023-07-31T09:43:09;18.90;99.90
21487;DHT22;10905;50.822;4.336;2023-07-31T09:45:37;19.00;99.90
21487;DHT22;10905;50.822;4.336;2023-07-31T09:48:10;19.10;99.90
21487;DHT22;10905;50.822;4.336;2023-07-31T09:50:46;19.10;99.90
21487;DHT22;10905;50.822;4.336;2023-07-31T09:53:13;19.10;99.90
21487;DHT22;10905;50.822;4.336;2023-07-31T09:55:40;19.10;99.90
21487;DHT22;10905;50.822;4.336;2023-07-31T09:58:08;19.10;99.90
21487;DHT22;10905;50.822;4.336;2023-07-31T10:00:34;19.10;99.90
21487;DHT22;10905;50.822;4.336;2023-07-31T10:03:04;19.00;99.90
21487;DHT22;10905;50.822;4.336;2023-07-31T10:05:50;19.00;99.90
21487;DHT22;10905;50.822;4.336;2023-07-31T10:08:18;18.90;99.90
21487;DHT22;10905;50.822;4.336;2023-07-31T10:10:45;18.90;99.90
21487;DHT22;10905;50.822;4.336;2023-07-31T10:13:12;19.00;99.90
21487;DHT22;10905;50.822;4.336;2023-07-31T10:15:38;19.10;99.90
21487;DHT22;10905;50.822;4.336;2023-07-31T10:18:06;19.20;99.90
21487;DHT22;10905;50.822;4.336;2023-07-31T10:20:32;19.30;99.90
21487;DHT22;10905;50.822;4.336;2023-07-31T10:22:57;19.20;99.90
21487;DHT22;10905;50.822;4.336;2023-07-31T10:25:25;19.30;99.90
21487;DHT22;10905;50.822;4.336;2023-07-31T10:27:53;19.40;99.90
21487;DHT22;10905;50.822;4.336;2023-07-31T10:30:21;19.50;99.90
21487;DHT22;10905;50.822;4.336;2023-07-31T10:32:51;19.60;99.90
21487;DHT22;10905;50.822;4.336;2023-07-31T10:35:17;19.60;99.90
21487;DHT22;10905;50.822;4.336;2023-07-31T10:37:44;19.60;99.90
21487;DHT22;10905;50.822;4.336;2023-07-31T10:40:16;19.70;99.90
21487;DHT22;10905;50.822;4.336;2023-07-31T10:42:53;19.60;99.90
21487;DHT22;10905;50.822;4.336;2023-07-31T10:45:39;19.60;99.90
21487;DHT22;10905;50.822;4.336;2023-07-31T10:48:06;19.60;99.90
21487;DHT22;10905;50.822;4.336;2023-07-31T10:50:37;19.70;99.90
21487;DHT22;10905;50.822;4.336;2023-07-31T10:53:03;19.80;99.90
21487;DHT22;10905;50.822;4.336;2023-07-31T10:55:42;19.90;99.90
21487;DHT22;10905;50.822;4.336;2023-07-31T10:58:13;20.00;99.90
21487;DHT22;10905;50.822;4.336;2023-07-31T11:00:43;20.00;99.90
21487;DHT22;10905;50.822;4.336;2023-07-31T11:06:02;20.00;99.90
21487;DHT22;10905;50.822;4.336;2023-07-31T11:08:32;20.00;99.90
21487;DHT22;10905;50.822;4.336;2023-07-31T11:13:31;20.10;99.90
21487;DHT22;10905;50.822;4.336;2023-07-31T11:15:57;20.00;99.90
21487;DHT22;10905;50.822;4.336;2023-07-31T11:18:23;20.00;99.90
21487;DHT22;10905;50.822;4.336;2023-07-31T11:20:49;20.10;99.90
21487;DHT22;10905;50.822;4.336;2023-07-31T11:23:16;20.20;99.90
21487;DHT22;10905;50.822;4.336;2023-07-31T11:25:42;20.20;99.90
21487;DHT22;10905;50.822;4.336;2023-07-31T11:28:10;20.20;99.90
21487;DHT22;10905;50.822;4.336;2023-07-31T11:30:36;20.20;99.90
21487;DHT22;10905;50.822;4.336;2023-07-31T11:33:03;20.20;99.90
21487;DHT22;10905;50.822;4.336;2023-07-31T11:35:33;20.20;99.90
21487;DHT22;10905;50.822;4.336;2023-07-31T11:37:59;20.30;99.90
21487;DHT22;10905;50.822;4.336;2023-07-31T11:40:25;20.30;99.90
21487;DHT22;10905;50.822;4.336;2023-07-31T11:42:58;20.20;99.90
21487;DHT22;10905;50.822;4.336;2023-07-31T11:45:30;20.20;99.90
21487;DHT22;10905;50.822;4.336;2023-07-31T11:47:56;20.10;99.90
21487;DHT22;10905;50.822;4.336;2023-07-31T11:50:23;20.30;99.90
21487;DHT22;10905;50.822;4.336;2023-07-31T11:52:53;20.30;99.90
21487;DHT22;10905;50.822;4.336;2023-07-31T11:55:19;20.30;99.90
21487;DHT22;10905;50.822;4.336;2023-07-31T11:57:45;20.40;99.90
21487;DHT22;10905;50.822;4.336;2023-07-31T12:00:13;20.50;99.90
21487;DHT22;10905;50.822;4.336;2023-07-31T12:02:40;20.50;99.90
21487;DHT22;10905;50.822;4.336;2023-07-31T12:05:13;20.60;99.90
21487;DHT22;10905;50.822;4.336;2023-07-31T12:07:52;20.70;99.90
21487;DHT22;10905;50.822;4.336;2023-07-31T12:10:29;20.70;99.90
21487;DHT22;10905;50.822;4.336;2023-07-31T12:13:22;20.70;99.90
21487;DHT22;10905;50.822;4.336;2023-07-31T12:15:48;20.70;99.90
21487;DHT22;10905;50.822;4.336;2023-07-31T12:18:19;20.70;99.90
21487;DHT22;10905;50.822;4.336;2023-07-31T12:20:47;20.70;99.90
21487;DHT22;10905;50.822;4.336;2023-07-31T12:23:21;20.70;99.90
21487;DHT22;10905;50.822;4.336;2023-07-31T12:26:09;20.70;99.90
21487;DHT22;10905;50.822;4.336;2023-07-31T12:28:49;20.70;99.90
21487;DHT22;10905;50.822;4.336;2023-07-31T12:31:21;20.50;99.90
21487;DHT22;10905;50.822;4.336;2023-07-31T12:33:48;20.60;99.90
21487;DHT22;10905;50.822;4.336;2023-07-31T12:36:16;20.60;99.90
21487;DHT22;10905;50.822;4.336;2023-07-31T12:38:43;20.60;99.90
21487;DHT22;10905;50.822;4.336;2023-07-31T12:41:09;20.60;99.90
21487;DHT22;10905;50.822;4.336;2023-07-31T12:43:36;20.80;99.90
21487;DHT22;10905;50.822;4.336;2023-07-31T12:46:02;20.90;99.90
21487;DHT22;10905;50.822;4.336;2023-07-31T12:48:28;21.20;99.90
21487;DHT22;10905;50.822;4.336;2023-07-31T12:50:54;21.40;99.90
21487;DHT22;10905;50.822;4.336;2023-07-31T12:53:20;21.60;99.90
21487;DHT22;10905;50.822;4.336;2023-07-31T12:55:45;21.60;99.90
21487;DHT22;10905;50.822;4.336;2023-07-31T12:58:11;21.40;99.90
21487;DHT22;10905;50.822;4.336;2023-07-31T13:00:37;21.20;99.90
21487;DHT22;10905;50.822;4.336;2023-07-31T13:03:03;21.10;99.90
21487;DHT22;10905;50.822;4.336;2023-07-31T13:05:29;21.10;99.90
21487;DHT22;10905;50.822;4.336;2023-07-31T13:07:55;21.00;99.90
21487;DHT22;10905;50.822;4.336;2023-07-31T13:10:22;20.90;99.90
21487;DHT22;10905;50.822;4.336;2023-07-31T13:12:48;20.90;99.90
21487;DHT22;10905;50.822;4.336;2023-07-31T13:15:14;20.80;99.90
21487;DHT22;10905;50.822;4.336;2023-07-31T13:17:40;20.70;99.90
21487;DHT22;10905;50.822;4.336;2023-07-31T13:20:06;20.80;99.90
21487;DHT22;10905;50.822;4.336;2023-07-31T13:22:32;20.60;99.90
21487;DHT22;10905;50.822;4.336;2023-07-31T13:24:58;20.50;99.90
21487;DHT22;10905;50.822;4.336;2023-07-31T13:27:24;20.30;99.90
21487;DHT22;10905;50.822;4.336;2023-07-31T13:29:51;20.30;99.90
21487;DHT22;10905;50.822;4.336;2023-07-31T13:32:18;20.20;99.90
21487;DHT22;10905;50.822;4.336;2023-07-31T13:34:44;20.10;99.90
21487;DHT22;10905;50.822;4.336;2023-07-31T13:37:10;19.90;99.90
21487;DHT22;10905;50.822;4.336;2023-07-31T13:39:36;19.80;99.90
21487;DHT22;10905;50.822;4.336;2023-07-31T13:42:04;19.70;99.90
21487;DHT22;10905;50.822;4.336;2023-07-31T13:44:36;19.50;99.90
21487;DHT22;10905;50.822;4.336;2023-07-31T13:47:02;19.50;99.90
21487;DHT22;10905;50.822;4.336;2023-07-31T13:49:29;19.40;99.90
21487;DHT22;10905;50.822;4.336;2023-07-31T13:51:55;19.40;99.90
21487;DHT22;10905;50.822;4.336;2023-07-31T13:54:22;19.40;99.90
21487;DHT22;10905;50.822;4.336;2023-07-31T13:56:48;19.30;99.90
21487;DHT22;10905;50.822;4.336;2023-07-31T13:59:13;19.30;99.90
21487;DHT22;10905;50.822;4.336;2023-07-31T14:01:41;19.20;99.90
21487;DHT22;10905;50.822;4.336;2023-07-31T14:04:07;19.20;99.90
21487;DHT22;10905;50.822;4.336;2023-07-31T14:06:32;19.10;99.90
21487;DHT22;10905;50.822;4.336;2023-07-31T14:08:58;19.10;99.90
21487;DHT22;10905;50.822;4.336;2023-07-31T14:11:23;19.10;99.90
21487;DHT22;10905;50.822;4.336;2023-07-31T14:13:50;19.00;99.90
21487;DHT22;10905;50.822;4.336;2023-07-31T14:16:16;19.10;99.90
21487;DHT22;10905;50.822;4.336;2023-07-31T14:18:42;19.10;99.90
21487;DHT22;10905;50.822;4.336;2023-07-31T14:21:08;19.20;99.90
21487;DHT22;10905;50.822;4.336;2023-07-31T14:23:34;19.20;99.90
21487;DHT22;10905;50.822;4.336;2023-07-31T14:25:59;19.10;99.90
21487;DHT22;10905;50.822;4.336;2023-07-31T14:28:25;19.20;99.90
21487;DHT22;10905;50.822;4.336;2023-07-31T14:30:50;19.20;99.90
21487;DHT22;10905;50.822;4.336;2023-07-31T14:33:16;19.20;99.90
21487;DHT22;10905;50.822;4.336;2023-07-31T14:35:42;19.10;99.90
21487;DHT22;10905;50.822;4.336;2023-07-31T14:38:07;19.10;99.90
21487;DHT22;10905;50.822;4.336;2023-07-31T14:40:33;19.10;99.90
21487;DHT22;10905;50.822;4.336;2023-07-31T14:42:59;19.10;99.90
21487;DHT22;10905;50.822;4.336;2023-07-31T14:45:24;19.00;99.90
21487;DHT22;10905;50.822;4.336;2023-07-31T14:47:50;19.00;99.90
21487;DHT22;10905;50.822;4.336;2023-07-31T14:50:16;19.00;99.90
21487;DHT22;10905;50.822;4.336;2023-07-31T14:52:41;19.00;99.90
21487;DHT22;10905;50.822;4.336;2023-07-31T14:55:07;18.90;99.90
21487;DHT22;10905;50.822;4.336;2023-07-31T14:57:34;18.90;99.90
21487;DHT22;10905;50.822;4.336;2023-07-31T15:00:00;19.00;99.90
21487;DHT22;10905;50.822;4.336;2023-07-31T15:02:26;19.00;99.90
21487;DHT22;10905;50.822;4.336;2023-07-31T15:04:52;19.00;99.90
21487;DHT22;10905;50.822;4.336;2023-07-31T15:07:18;19.00;99.90
21487;DHT22;10905;50.822;4.336;2023-07-31T15:09:43;19.00;99.90
21487;DHT22;10905;50.822;4.336;2023-07-31T15:12:09;19.00;99.90
21487;DHT22;10905;50.822;4.336;2023-07-31T15:14:35;19.00;99.90
21487;DHT22;10905;50.822;4.336;2023-07-31T15:17:00;19.00;99.90
21487;DHT22;10905;50.822;4.336;2023-07-31T15:19:26;19.00;99.90
21487;DHT22;10905;50.822;4.336;2023-07-31T15:21:51;19.00;99.90
21487;DHT22;10905;50.822;4.336;2023-07-31T15:24:17;19.10;99.90
21487;DHT22;10905;50.822;4.336;2023-07-31T15:26:43;19.00;99.90
21487;DHT22;10905;50.822;4.336;2023-07-31T15:29:08;19.00;99.90
21487;DHT22;10905;50.822;4.336;2023-07-31T15:31:39;19.00;99.90
21487;DHT22;10905;50.822;4.336;2023-07-31T15:34:05;19.00;99.90
21487;DHT22;10905;50.822;4.336;2023-07-31T15:36:31;19.00;99.90
21487;DHT22;10905;50.822;4.336;2023-07-31T15:38:57;19.00;99.90